sensor_id;sensor_type;location;lat;lon;timestamp;pressure;altitude;pressure_sealevel;temperature;humidity
20023;BME280;10172;42.054;24.546;2023-04-22T00:00:20;97883.97;;;12.44;100.00
20023;BME280;10172;42.054;24.546;2023-04-22T00:02:46;97871.53;;;12.34;100.00
20023;BME280;10172;42.054;24.546;2023-04-22T00:05:12;97858.66;;;13.02;100.00
20023;BME280;10172;42.054;24.546;2023-04-22T00:07:41;97880.72;;;13.15;100.00
20023;BME280;10172;42.054;24.546;2023-04-22T00:10:08;97831.44;;;12.24;100.00
20023;BME280;10172;42.054;24.546;2023-04-22T00:12:34;97878.03;;;12.41;100.00
20023;BME280;10172;42.054;24.546;2023-04-22T00:14:59;97874.22;;;11.56;100.00
20023;BME280;10172;42.054;24.546;2023-04-22T00:17:25;97868.97;;;11.43;100.00
20023;BME280;10172;42.054;24.546;2023-04-22T00:19:50;97876.16;;;12.21;100.00
20023;BME280;10172;42.054;24.546;2023-04-22T00:22:17;97844.47;;;12.38;100.00
20023;BME280;10172;42.054;24.546;2023-04-22T00:24:42;97857.19;;;12.46;100.00
20023;BME280;10172;42.054;24.546;2023-04-22T00:27:08;97850.91;;;12.25;100.00
20023;BME280;10172;42.054;24.546;2023-04-22T00:29:33;97863.78;;;12.20;100.00
20023;BME280;10172;42.054;24.546;2023-04-22T00:31:59;97860.19;;;11.98;100.00
20023;BME280;10172;42.054;24.546;2023-04-22T00:34:24;97876.59;;;13.11;100.00
20023;BME280;10172;42.054;24.546;2023-04-22T00:36:50;97841.81;;;13.43;100.00
20023;BME280;10172;42.054;24.546;2023-04-22T00:39:16;97894.88;;;13.27;100.00
20023;BME280;10172;42.054;24.546;2023-04-22T00:41:42;97894.91;;;13.57;100.00
20023;BME280;10172;42.054;24.546;2023-04-22T00:44:09;97886.56;;;13.09;100.00
20023;BME280;10172;42.054;24.546;2023-04-22T00:46:38;97887.41;;;13.72;100.00
20023;BME280;10172;42.054;24.546;2023-04-22T00:49:05;97873.28;;;13.91;100.00
20023;BME280;10172;42.054;24.546;2023-04-22T00:51:31;97894.41;;;13.94;100.00
20023;BME280;10172;42.054;24.546;2023-04-22T00:53:57;97887.38;;;12.89;100.00
20023;BME280;10172;42.054;24.546;2023-04-22T00:56:25;97873.63;;;13.26;100.00
20023;BME280;10172;42.054;24.546;2023-04-22T00:58:52;97855.31;;;13.21;100.00
20023;BME280;10172;42.054;24.546;2023-04-22T01:01:18;97870.69;;;13.29;100.00
20023;BME280;10172;42.054;24.546;2023-04-22T01:03:45;97875.94;;;12.02;100.00
20023;BME280;10172;42.054;24.546;2023-04-22T01:06:12;97864.00;;;12.39;100.00
20023;BME280;10172;42.054;24.546;2023-04-22T01:08:39;97856.69;;;13.15;100.00
20023;BME280;10172;42.054;24.546;2023-04-22T01:11:05;97861.47;;;13.93;100.00
20023;BME280;10172;42.054;24.546;2023-04-22T01:13:31;97873.66;;;13.14;100.00
20023;BME280;10172;42.054;24.546;2023-04-22T01:15:57;97862.94;;;12.73;100.00
20023;BME280;10172;42.054;24.546;2023-04-22T01:18:24;97873.34;;;13.29;100.00
20023;BME280;10172;42.054;24.546;2023-04-22T01:20:49;97880.38;;;12.34;100.00
20023;BME280;10172;42.054;24.546;2023-04-22T01:23:18;97866.31;;;12.75;100.00
20023;BME280;10172;42.054;24.546;2023-04-22T01:25:45;97895.28;;;12.26;100.00
20023;BME280;10172;42.054;24.546;2023-04-22T01:28:10;97861.09;;;12.31;100.00
20023;BME280;10172;42.054;24.546;2023-04-22T01:30:37;97851.16;;;12.33;100.00
20023;BME280;10172;42.054;24.546;2023-04-22T01:33:03;97905.13;;;12.14;100.00
20023;BME280;10172;42.054;24.546;2023-04-22T01:35:28;97870.06;;;11.41;100.00
20023;BME280;10172;42.054;24.546;2023-04-22T01:37:54;97882.75;;;11.94;100.00
20023;BME280;10172;42.054;24.546;2023-04-22T01:40:22;97863.84;;;11.97;100.00
20023;BME280;10172;42.054;24.546;2023-04-22T01:42:49;97878.59;;;11.90;100.00
20023;BME280;10172;42.054;24.546;2023-04-22T01:45:15;97863.75;;;12.74;100.00
20023;BME280;10172;42.054;24.546;2023-04-22T01:47:42;97871.06;;;12.92;100.00
20023;BME280;10172;42.054;24.546;2023-04-22T01:50:07;97860.22;;;13.67;100.00
20023;BME280;10172;42.054;24.546;2023-04-22T01:52:33;97862.00;;;13.36;100.00
20023;BME280;10172;42.054;24.546;2023-04-22T01:55:00;97877.03;;;13.58;100.00
20023;BME280;10172;42.054;24.546;2023-04-22T01:57:26;97857.91;;;13.11;100.00
20023;BME280;10172;42.054;24.546;2023-04-22T01:59:52;97843.69;;;12.58;100.00
20023;BME280;10172;42.054;24.546;2023-04-22T02:02:17;97840.56;;;12.53;100.00
20023;BME280;10172;42.054;24.546;2023-04-22T02:04:43;97859.97;;;11.22;100.00
20023;BME280;10172;42.054;24.546;2023-04-22T02:07:08;97827.81;;;10.79;100.00
20023;BME280;10172;42.054;24.546;2023-04-22T02:09:34;97830.78;;;10.99;100.00
20023;BME280;10172;42.054;24.546;2023-04-22T02:11:59;97854.75;;;11.10;100.00
20023;BME280;10172;42.054;24.546;2023-04-22T02:14:25;97880.56;;;10.86;100.00
20023;BME280;10172;42.054;24.546;2023-04-22T02:16:51;97852.69;;;10.67;100.00
20023;BME280;10172;42.054;24.546;2023-04-22T02:19:17;97879.31;;;11.81;100.00
20023;BME280;10172;42.054;24.546;2023-04-22T02:21:42;97880.75;;;11.63;100.00
20023;BME280;10172;42.054;24.546;2023-04-22T02:24:08;97868.41;;;11.62;100.00
20023;BME280;10172;42.054;24.546;2023-04-22T02:26:33;97858.25;;;11.89;100.00
20023;BME280;10172;42.054;24.546;2023-04-22T02:28:59;97879.66;;;11.09;100.00
20023;BME280;10172;42.054;24.546;2023-04-22T02:31:24;97842.41;;;11.09;100.00
20023;BME280;10172;42.054;24.546;2023-04-22T02:33:50;97863.53;;;11.34;100.00
20023;BME280;10172;42.054;24.546;2023-04-22T02:36:15;97856.41;;;11.57;100.00
20023;BME280;10172;42.054;24.546;2023-04-22T02:38:41;97855.28;;;11.26;100.00
20023;BME280;10172;42.054;24.546;2023-04-22T02:41:06;97848.34;;;10.43;100.00
20023;BME280;10172;42.054;24.546;2023-04-22T02:43:32;97859.38;;;11.19;100.00
20023;BME280;10172;42.054;24.546;2023-04-22T02:45:57;97878.94;;;10.12;100.00
20023;BME280;10172;42.054;24.546;2023-04-22T02:48:23;97873.41;;;9.66;100.00
20023;BME280;10172;42.054;24.546;2023-04-22T02:50:48;97872.94;;;9.85;100.00
20023;BME280;10172;42.054;24.546;2023-04-22T02:53:13;97869.50;;;10.08;100.00
20023;BME280;10172;42.054;24.546;2023-04-22T02:55:40;97881.81;;;10.22;100.00
20023;BME280;10172;42.054;24.546;2023-04-22T02:58:06;97856.66;;;10.02;100.00
20023;BME280;10172;42.054;24.546;2023-04-22T03:00:31;97856.75;;;10.60;100.00
20023;BME280;10172;42.054;24.546;2023-04-22T03:02:57;97872.81;;;10.82;100.00
20023;BME280;10172;42.054;24.546;2023-04-22T03:05:22;97876.06;;;10.75;100.00
20023;BME280;10172;42.054;24.546;2023-04-22T03:07:48;97889.63;;;10.83;100.00
20023;BME280;10172;42.054;24.546;2023-04-22T03:10:14;97860.31;;;11.07;100.00
20023;BME280;10172;42.054;24.546;2023-04-22T03:12:40;97896.00;;;11.04;100.00
20023;BME280;10172;42.054;24.546;2023-04-22T03:15:06;97831.03;;;10.13;100.00
20023;BME280;10172;42.054;24.546;2023-04-22T03:17:31;97892.22;;;9.50;100.00
20023;BME280;10172;42.054;24.546;2023-04-22T03:19:57;97861.31;;;9.24;100.00
20023;BME280;10172;42.054;24.546;2023-04-22T03:22:22;97840.41;;;8.55;100.00
20023;BME280;10172;42.054;24.546;2023-04-22T03:24:48;97835.56;;;8.62;100.00
20023;BME280;10172;42.054;24.546;2023-04-22T03:27:13;97859.22;;;8.65;100.00
20023;BME280;10172;42.054;24.546;2023-04-22T03:29:39;97877.97;;;8.62;100.00
20023;BME280;10172;42.054;24.546;2023-04-22T03:32:04;97854.78;;;8.38;100.00
20023;BME280;10172;42.054;24.546;2023-04-22T03:34:30;97866.59;;;8.99;100.00
20023;BME280;10172;42.054;24.546;2023-04-22T03:36:55;97855.97;;;8.86;100.00
20023;BME280;10172;42.054;24.546;2023-04-22T03:39:21;97844.09;;;8.92;100.00
20023;BME280;10172;42.054;24.546;2023-04-22T03:41:46;97896.56;;;9.64;100.00
20023;BME280;10172;42.054;24.546;2023-04-22T03:44:12;97868.75;;;9.32;100.00
20023;BME280;10172;42.054;24.546;2023-04-22T03:46:37;97869.53;;;8.82;100.00
20023;BME280;10172;42.054;24.546;2023-04-22T03:49:02;97875.69;;;8.95;100.00
20023;BME280;10172;42.054;24.546;2023-04-22T03:51:28;97882.25;;;8.77;100.00
20023;BME280;10172;42.054;24.546;2023-04-22T03:53:53;97893.06;;;8.74;100.00
20023;BME280;10172;42.054;24.546;2023-04-22T03:56:19;97867.50;;;8.73;100.00
20023;BME280;10172;42.054;24.546;2023-04-22T03:58:45;97883.06;;;9.04;100.00
20023;BME280;10172;42.054;24.546;2023-04-22T04:01:10;97873.81;;;9.73;100.00
20023;BME280;10172;42.054;24.546;2023-04-22T04:03:36;97881.00;;;9.96;100.00
20023;BME280;10172;42.054;24.546;2023-04-22T04:06:02;97887.19;;;9.84;100.00
20023;BME280;10172;42.054;24.546;2023-04-22T04:08:27;97870.03;;;9.26;100.00
20023;BME280;10172;42.054;24.546;2023-04-22T04:10:53;97876.50;;;9.47;100.00
20023;BME280;10172;42.054;24.546;2023-04-22T04:13:18;97911.63;;;9.89;100.00
20023;BME280;10172;42.054;24.546;2023-04-22T04:15:43;97874.81;;;10.08;100.00
20023;BME280;10172;42.054;24.546;2023-04-22T04:18:09;97901.06;;;10.72;100.00
20023;BME280;10172;42.054;24.546;2023-04-22T04:20:36;97919.63;;;11.20;100.00
20023;BME280;10172;42.054;24.546;2023-04-22T04:23:01;97893.25;;;11.17;100.00
20023;BME280;10172;42.054;24.546;2023-04-22T04:25:27;97916.22;;;10.36;100.00
20023;BME280;10172;42.054;24.546;2023-04-22T04:27:55;97933.66;;;10.63;100.00
20023;BME280;10172;42.054;24.546;2023-04-22T04:30:20;97903.53;;;9.15;100.00
20023;BME280;10172;42.054;24.546;2023-04-22T04:32:46;97904.19;;;9.69;100.00
20023;BME280;10172;42.054;24.546;2023-04-22T04:35:12;97941.97;;;10.10;100.00
20023;BME280;10172;42.054;24.546;2023-04-22T04:37:39;97930.66;;;10.68;100.00
20023;BME280;10172;42.054;24.546;2023-04-22T04:40:07;97945.84;;;10.78;100.00
20023;BME280;10172;42.054;24.546;2023-04-22T04:42:32;97854.59;;;9.44;100.00
20023;BME280;10172;42.054;24.546;2023-04-22T04:44:58;97888.09;;;10.08;100.00
20023;BME280;10172;42.054;24.546;2023-04-22T04:47:24;97929.91;;;9.43;100.00
20023;BME280;10172;42.054;24.546;2023-04-22T04:49:49;97894.84;;;9.63;100.00
20023;BME280;10172;42.054;24.546;2023-04-22T04:52:17;97929.31;;;10.62;100.00
20023;BME280;10172;42.054;24.546;2023-04-22T04:54:43;97908.22;;;9.74;100.00
20023;BME280;10172;42.054;24.546;2023-04-22T04:57:08;97905.78;;;10.45;100.00
20023;BME280;10172;42.054;24.546;2023-04-22T04:59:34;97924.31;;;11.40;100.00
20023;BME280;10172;42.054;24.546;2023-04-22T05:02:00;97951.25;;;11.35;100.00
20023;BME280;10172;42.054;24.546;2023-04-22T05:04:25;97937.22;;;11.79;100.00
20023;BME280;10172;42.054;24.546;2023-04-22T05:06:51;97942.56;;;12.35;100.00
20023;BME280;10172;42.054;24.546;2023-04-22T05:09:16;97909.81;;;12.33;100.00
20023;BME280;10172;42.054;24.546;2023-04-22T05:11:42;97900.44;;;12.60;100.00
20023;BME280;10172;42.054;24.546;2023-04-22T05:14:07;97953.44;;;13.19;100.00
20023;BME280;10172;42.054;24.546;2023-04-22T05:16:33;97934.38;;;13.12;100.00
20023;BME280;10172;42.054;24.546;2023-04-22T05:18:58;97947.78;;;12.25;100.00
20023;BME280;10172;42.054;24.546;2023-04-22T05:21:24;97916.28;;;11.29;100.00
20023;BME280;10172;42.054;24.546;2023-04-22T05:23:49;97950.09;;;11.96;100.00
20023;BME280;10172;42.054;24.546;2023-04-22T05:26:15;97949.69;;;12.99;100.00
20023;BME280;10172;42.054;24.546;2023-04-22T05:28:40;97941.19;;;13.58;100.00
20023;BME280;10172;42.054;24.546;2023-04-22T05:31:06;97961.75;;;14.08;100.00
20023;BME280;10172;42.054;24.546;2023-04-22T05:33:31;97935.91;;;14.28;100.00
20023;BME280;10172;42.054;24.546;2023-04-22T05:35:57;97924.19;;;14.50;100.00
20023;BME280;10172;42.054;24.546;2023-04-22T05:38:22;97934.25;;;14.76;100.00
20023;BME280;10172;42.054;24.546;2023-04-22T05:40:48;97923.16;;;14.81;100.00
20023;BME280;10172;42.054;24.546;2023-04-22T05:43:14;97972.25;;;15.10;100.00
20023;BME280;10172;42.054;24.546;2023-04-22T05:45:39;97948.25;;;15.09;100.00
20023;BME280;10172;42.054;24.546;2023-04-22T05:48:05;97941.50;;;15.43;100.00
20023;BME280;10172;42.054;24.546;2023-04-22T05:50:30;97947.44;;;15.46;100.00
20023;BME280;10172;42.054;24.546;2023-04-22T05:52:56;97936.72;;;15.56;100.00
20023;BME280;10172;42.054;24.546;2023-04-22T05:55:21;97949.69;;;15.70;100.00
20023;BME280;10172;42.054;24.546;2023-04-22T05:57:47;97976.44;;;15.99;100.00
20023;BME280;10172;42.054;24.546;2023-04-22T06:00:13;97971.72;;;16.20;100.00
20023;BME280;10172;42.054;24.546;2023-04-22T06:02:38;97942.13;;;16.02;100.00
20023;BME280;10172;42.054;24.546;2023-04-22T06:05:04;97962.81;;;16.20;100.00
20023;BME280;10172;42.054;24.546;2023-04-22T06:07:30;97952.66;;;16.23;100.00
20023;BME280;10172;42.054;24.546;2023-04-22T06:09:55;97945.66;;;16.03;100.00
20023;BME280;10172;42.054;24.546;2023-04-22T06:12:21;97934.75;;;16.41;100.00
20023;BME280;10172;42.054;24.546;2023-04-22T06:14:46;97943.22;;;16.56;100.00
20023;BME280;10172;42.054;24.546;2023-04-22T06:17:12;97957.50;;;16.56;100.00
20023;BME280;10172;42.054;24.546;2023-04-22T06:19:37;97997.97;;;16.72;100.00
20023;BME280;10172;42.054;24.546;2023-04-22T06:22:03;97966.41;;;16.47;100.00
20023;BME280;10172;42.054;24.546;2023-04-22T06:24:28;97957.78;;;16.81;100.00
20023;BME280;10172;42.054;24.546;2023-04-22T06:26:54;97952.28;;;17.00;100.00
20023;BME280;10172;42.054;24.546;2023-04-22T06:29:20;97969.88;;;17.12;99.26
20023;BME280;10172;42.054;24.546;2023-04-22T06:31:45;97954.34;;;17.06;96.70
20023;BME280;10172;42.054;24.546;2023-04-22T06:34:11;97951.66;;;16.88;96.70
20023;BME280;10172;42.054;24.546;2023-04-22T06:36:36;97980.84;;;15.90;100.00
20023;BME280;10172;42.054;24.546;2023-04-22T06:39:03;97980.44;;;15.18;100.00
20023;BME280;10172;42.054;24.546;2023-04-22T06:41:30;97948.19;;;14.61;100.00
20023;BME280;10172;42.054;24.546;2023-04-22T06:43:55;97935.00;;;15.17;100.00
20023;BME280;10172;42.054;24.546;2023-04-22T06:46:20;97962.69;;;15.46;100.00
20023;BME280;10172;42.054;24.546;2023-04-22T06:48:47;97988.91;;;15.81;100.00
20023;BME280;10172;42.054;24.546;2023-04-22T06:51:12;97963.44;;;16.04;100.00
20023;BME280;10172;42.054;24.546;2023-04-22T06:53:38;97967.16;;;16.30;100.00
20023;BME280;10172;42.054;24.546;2023-04-22T06:56:04;97986.66;;;16.79;99.07
20023;BME280;10172;42.054;24.546;2023-04-22T06:58:30;97979.56;;;16.78;96.87
20023;BME280;10172;42.054;24.546;2023-04-22T07:00:55;97962.69;;;15.46;100.00
20023;BME280;10172;42.054;24.546;2023-04-22T07:03:21;97963.78;;;15.05;100.00
20023;BME280;10172;42.054;24.546;2023-04-22T07:05:46;97960.59;;;14.62;100.00
20023;BME280;10172;42.054;24.546;2023-04-22T07:08:12;97960.03;;;13.77;100.00
20023;BME280;10172;42.054;24.546;2023-04-22T07:10:38;97958.19;;;13.77;100.00
20023;BME280;10172;42.054;24.546;2023-04-22T07:13:04;97963.63;;;14.97;100.00
20023;BME280;10172;42.054;24.546;2023-04-22T07:15:29;97974.13;;;16.23;100.00
20023;BME280;10172;42.054;24.546;2023-04-22T07:17:55;97973.19;;;16.42;100.00
20023;BME280;10172;42.054;24.546;2023-04-22T07:20:20;97958.72;;;15.69;100.00
20023;BME280;10172;42.054;24.546;2023-04-22T07:22:46;97958.56;;;15.13;100.00
20023;BME280;10172;42.054;24.546;2023-04-22T07:25:11;97948.59;;;16.09;100.00
20023;BME280;10172;42.054;24.546;2023-04-22T07:27:37;97975.38;;;15.73;100.00
20023;BME280;10172;42.054;24.546;2023-04-22T07:30:04;97964.94;;;14.63;100.00
20023;BME280;10172;42.054;24.546;2023-04-22T07:32:30;97949.44;;;14.26;100.00
20023;BME280;10172;42.054;24.546;2023-04-22T07:34:56;97962.66;;;15.17;100.00
20023;BME280;10172;42.054;24.546;2023-04-22T07:37:21;97953.53;;;15.48;100.00
20023;BME280;10172;42.054;24.546;2023-04-22T07:39:47;97974.19;;;16.04;100.00
20023;BME280;10172;42.054;24.546;2023-04-22T07:42:12;97988.97;;;17.09;100.00
20023;BME280;10172;42.054;24.546;2023-04-22T07:44:38;97978.81;;;17.48;97.36
20023;BME280;10172;42.054;24.546;2023-04-22T07:47:03;97940.06;;;16.88;98.79
20023;BME280;10172;42.054;24.546;2023-04-22T07:49:29;97981.94;;;17.08;97.35
20023;BME280;10172;42.054;24.546;2023-04-22T07:51:55;97990.00;;;17.08;98.37
20023;BME280;10172;42.054;24.546;2023-04-22T07:54:21;97976.38;;;16.64;99.69
20023;BME280;10172;42.054;24.546;2023-04-22T07:56:46;97957.59;;;16.64;99.84
20023;BME280;10172;42.054;24.546;2023-04-22T07:59:12;97994.44;;;16.35;100.00
20023;BME280;10172;42.054;24.546;2023-04-22T08:01:37;97979.81;;;16.01;100.00
20023;BME280;10172;42.054;24.546;2023-04-22T08:04:03;97977.72;;;16.41;100.00
20023;BME280;10172;42.054;24.546;2023-04-22T08:06:28;97983.25;;;17.39;98.34
20023;BME280;10172;42.054;24.546;2023-04-22T08:08:54;97947.06;;;17.86;93.32
20023;BME280;10172;42.054;24.546;2023-04-22T08:11:19;97967.22;;;18.60;92.16
20023;BME280;10172;42.054;24.546;2023-04-22T08:13:44;97960.44;;;17.43;96.23
20023;BME280;10172;42.054;24.546;2023-04-22T08:16:10;97973.28;;;18.62;90.60
20023;BME280;10172;42.054;24.546;2023-04-22T08:18:36;97974.94;;;17.60;93.05
20023;BME280;10172;42.054;24.546;2023-04-22T08:21:01;97952.50;;;17.06;97.94
20023;BME280;10172;42.054;24.546;2023-04-22T08:23:27;97947.34;;;16.78;98.22
20023;BME280;10172;42.054;24.546;2023-04-22T08:25:52;97962.38;;;16.70;100.00
20023;BME280;10172;42.054;24.546;2023-04-22T08:28:18;97927.41;;;17.68;95.26
20023;BME280;10172;42.054;24.546;2023-04-22T08:30:43;97966.16;;;18.27;91.28
20023;BME280;10172;42.054;24.546;2023-04-22T08:33:09;97961.00;;;18.41;90.04
20023;BME280;10172;42.054;24.546;2023-04-22T08:35:35;97953.34;;;18.96;88.56
20023;BME280;10172;42.054;24.546;2023-04-22T08:38:01;97953.63;;;19.35;87.55
20023;BME280;10172;42.054;24.546;2023-04-22T08:40:27;97934.94;;;19.50;89.23
20023;BME280;10172;42.054;24.546;2023-04-22T08:42:53;97950.41;;;20.20;85.83
20023;BME280;10172;42.054;24.546;2023-04-22T08:45:20;97917.38;;;19.94;84.98
20023;BME280;10172;42.054;24.546;2023-04-22T08:47:49;97947.56;;;19.82;82.40
20023;BME280;10172;42.054;24.546;2023-04-22T08:50:15;97959.06;;;20.24;83.56
20023;BME280;10172;42.054;24.546;2023-04-22T08:52:41;97949.78;;;19.94;84.54
20023;BME280;10172;42.054;24.546;2023-04-22T08:55:07;97918.28;;;20.50;83.48
20023;BME280;10172;42.054;24.546;2023-04-22T08:57:35;97914.78;;;20.33;82.51
20023;BME280;10172;42.054;24.546;2023-04-22T09:00:01;97917.91;;;19.49;86.94
20023;BME280;10172;42.054;24.546;2023-04-22T09:02:27;97928.47;;;20.32;86.09
20023;BME280;10172;42.054;24.546;2023-04-22T09:04:57;97923.19;;;20.46;81.14
20023;BME280;10172;42.054;24.546;2023-04-22T09:07:25;97910.41;;;20.71;81.67
20023;BME280;10172;42.054;24.546;2023-04-22T09:09:55;97923.78;;;21.11;78.76
20023;BME280;10172;42.054;24.546;2023-04-22T09:12:20;97931.72;;;21.35;79.05
20023;BME280;10172;42.054;24.546;2023-04-22T09:14:46;97926.63;;;20.16;81.08
20023;BME280;10172;42.054;24.546;2023-04-22T09:17:29;97938.63;;;20.13;81.27
20023;BME280;10172;42.054;24.546;2023-04-22T09:20:03;97931.75;;;20.58;79.70
20023;BME280;10172;42.054;24.546;2023-04-22T09:22:46;97913.63;;;20.11;80.83
20023;BME280;10172;42.054;24.546;2023-04-22T09:25:20;97916.63;;;20.41;79.35
20023;BME280;10172;42.054;24.546;2023-04-22T09:27:50;97903.34;;;20.70;78.05
20023;BME280;10172;42.054;24.546;2023-04-22T09:30:18;97911.50;;;21.46;74.92
20023;BME280;10172;42.054;24.546;2023-04-22T09:32:57;97897.84;;;21.39;73.42
20023;BME280;10172;42.054;24.546;2023-04-22T09:35:26;97814.44;;;20.75;74.00
20023;BME280;10172;42.054;24.546;2023-04-22T09:37:52;97883.84;;;21.36;73.63
20023;BME280;10172;42.054;24.546;2023-04-22T09:40:18;97885.91;;;21.71;71.35
20023;BME280;10172;42.054;24.546;2023-04-22T09:42:52;97877.09;;;21.09;73.98
20023;BME280;10172;42.054;24.546;2023-04-22T09:47:54;97868.84;;;22.08;70.37
20023;BME280;10172;42.054;24.546;2023-04-22T09:50:23;97854.53;;;22.14;70.16
20023;BME280;10172;42.054;24.546;2023-04-22T09:52:58;97842.13;;;22.05;67.40
20023;BME280;10172;42.054;24.546;2023-04-22T09:55:25;97845.56;;;21.99;66.71
20023;BME280;10172;42.054;24.546;2023-04-22T09:57:55;97821.13;;;21.70;64.03
20023;BME280;10172;42.054;24.546;2023-04-22T10:00:23;97834.53;;;22.15;66.44
20023;BME280;10172;42.054;24.546;2023-04-22T10:02:49;97814.88;;;22.57;64.36
20023;BME280;10172;42.054;24.546;2023-04-22T10:05:15;97835.25;;;22.53;58.40
20023;BME280;10172;42.054;24.546;2023-04-22T10:07:43;97814.09;;;22.13;65.09
20023;BME280;10172;42.054;24.546;2023-04-22T10:10:08;97797.47;;;22.01;66.43
20023;BME280;10172;42.054;24.546;2023-04-22T10:12:35;97808.91;;;21.74;65.54
20023;BME280;10172;42.054;24.546;2023-04-22T10:15:02;97832.09;;;22.20;65.57
20023;BME280;10172;42.054;24.546;2023-04-22T10:17:30;97832.38;;;22.25;66.92
20023;BME280;10172;42.054;24.546;2023-04-22T10:19:57;97774.50;;;21.97;65.96
20023;BME280;10172;42.054;24.546;2023-04-22T10:22:26;97794.97;;;21.99;64.76
20023;BME280;10172;42.054;24.546;2023-04-22T10:24:51;97796.03;;;22.34;65.39
20023;BME280;10172;42.054;24.546;2023-04-22T10:27:21;97806.31;;;22.89;63.47
20023;BME280;10172;42.054;24.546;2023-04-22T10:29:46;97835.81;;;23.20;65.33
20023;BME280;10172;42.054;24.546;2023-04-22T10:34:45;97823.97;;;22.64;62.15
20023;BME280;10172;42.054;24.546;2023-04-22T10:37:12;97809.66;;;22.55;62.83
20023;BME280;10172;42.054;24.546;2023-04-22T10:39:40;97815.91;;;22.41;62.21
20023;BME280;10172;42.054;24.546;2023-04-22T10:42:08;97805.50;;;22.09;65.04
20023;BME280;10172;42.054;24.546;2023-04-22T10:44:51;97802.59;;;21.96;64.74
20023;BME280;10172;42.054;24.546;2023-04-22T10:47:31;97804.81;;;22.36;59.98
20023;BME280;10172;42.054;24.546;2023-04-22T10:50:13;97821.78;;;22.74;60.00
20023;BME280;10172;42.054;24.546;2023-04-22T10:52:40;97823.84;;;22.72;56.85
20023;BME280;10172;42.054;24.546;2023-04-22T10:55:06;97817.66;;;22.78;57.04
20023;BME280;10172;42.054;24.546;2023-04-22T10:57:42;97826.34;;;23.09;58.37
20023;BME280;10172;42.054;24.546;2023-04-22T11:00:21;97832.72;;;23.02;55.82
20023;BME280;10172;42.054;24.546;2023-04-22T11:03:07;97826.00;;;23.61;57.10
20023;BME280;10172;42.054;24.546;2023-04-22T11:05:33;97829.25;;;23.29;57.43
20023;BME280;10172;42.054;24.546;2023-04-22T11:08:10;97817.88;;;22.98;59.35
20023;BME280;10172;42.054;24.546;2023-04-22T11:10:47;97831.03;;;22.80;59.68
20023;BME280;10172;42.054;24.546;2023-04-22T11:13:22;97822.28;;;22.63;58.29
20023;BME280;10172;42.054;24.546;2023-04-22T11:15:50;97841.56;;;21.95;61.69
20023;BME280;10172;42.054;24.546;2023-04-22T11:18:25;97803.25;;;22.27;63.05
20023;BME280;10172;42.054;24.546;2023-04-22T11:20:51;97832.75;;;22.22;62.99
20023;BME280;10172;42.054;24.546;2023-04-22T11:23:28;97825.31;;;21.95;61.39
20023;BME280;10172;42.054;24.546;2023-04-22T11:26:03;97845.59;;;22.14;64.12
20023;BME280;10172;42.054;24.546;2023-04-22T11:28:29;97845.72;;;22.41;63.03
20023;BME280;10172;42.054;24.546;2023-04-22T11:31:05;97837.91;;;22.46;62.77
20023;BME280;10172;42.054;24.546;2023-04-22T11:33:32;97851.00;;;21.76;63.97
20023;BME280;10172;42.054;24.546;2023-04-22T11:35:59;97858.59;;;21.43;65.06
20023;BME280;10172;42.054;24.546;2023-04-22T11:38:25;97854.16;;;21.28;64.12
20023;BME280;10172;42.054;24.546;2023-04-22T11:40:50;97883.69;;;20.84;68.24
20023;BME280;10172;42.054;24.546;2023-04-22T11:43:18;97877.59;;;19.16;72.31
20023;BME280;10172;42.054;24.546;2023-04-22T11:45:44;97875.91;;;18.15;77.23
20023;BME280;10172;42.054;24.546;2023-04-22T11:48:10;97900.13;;;17.63;80.06
20023;BME280;10172;42.054;24.546;2023-04-22T11:50:38;97917.13;;;17.46;79.47
20023;BME280;10172;42.054;24.546;2023-04-22T11:53:18;97865.28;;;17.01;81.20
20023;BME280;10172;42.054;24.546;2023-04-22T11:55:46;97929.97;;;16.54;83.12
20023;BME280;10172;42.054;24.546;2023-04-22T11:58:17;97925.38;;;16.64;83.45
20023;BME280;10172;42.054;24.546;2023-04-22T12:00:48;97949.00;;;16.51;83.59
20023;BME280;10172;42.054;24.546;2023-04-22T12:03:20;97953.50;;;16.24;87.89
20023;BME280;10172;42.054;24.546;2023-04-22T12:05:57;97972.47;;;16.86;88.01
20023;BME280;10172;42.054;24.546;2023-04-22T12:08:43;97982.09;;;15.96;94.18
20023;BME280;10172;42.054;24.546;2023-04-22T12:11:11;97980.31;;;15.87;95.89
20023;BME280;10172;42.054;24.546;2023-04-22T12:13:41;97961.56;;;15.68;98.57
20023;BME280;10172;42.054;24.546;2023-04-22T12:16:12;98004.84;;;15.92;100.00
20023;BME280;10172;42.054;24.546;2023-04-22T12:18:51;98024.41;;;16.21;100.00
20023;BME280;10172;42.054;24.546;2023-04-22T12:21:22;98019.91;;;16.22;100.00
20023;BME280;10172;42.054;24.546;2023-04-22T12:23:54;97999.84;;;16.16;100.00
20023;BME280;10172;42.054;24.546;2023-04-22T12:26:22;98042.75;;;16.35;100.00
20023;BME280;10172;42.054;24.546;2023-04-22T12:28:49;98037.69;;;15.36;100.00
20023;BME280;10172;42.054;24.546;2023-04-22T12:31:16;98036.81;;;15.17;100.00
20023;BME280;10172;42.054;24.546;2023-04-22T12:33:42;98039.69;;;15.44;100.00
20023;BME280;10172;42.054;24.546;2023-04-22T12:36:08;98003.13;;;14.04;100.00
20023;BME280;10172;42.054;24.546;2023-04-22T12:38:34;97982.69;;;13.09;100.00
20023;BME280;10172;42.054;24.546;2023-04-22T12:41:01;97978.47;;;13.80;100.00
20023;BME280;10172;42.054;24.546;2023-04-22T12:43:26;97984.47;;;13.20;100.00
20023;BME280;10172;42.054;24.546;2023-04-22T12:45:52;98013.22;;;13.28;100.00
20023;BME280;10172;42.054;24.546;2023-04-22T12:48:17;98007.44;;;12.24;100.00